sensor_id;sensor_type;location;lat;lon;timestamp;temperature;humidity
74940;HTU21D;63505;45.226;37.908;2022-12-05T00:01:39;-1.75;78.22
74940;HTU21D;63505;45.226;37.908;2022-12-05T00:04:09;-1.74;78.27
74940;HTU21D;63505;45.226;37.908;2022-12-05T00:06:36;-1.73;78.30
74940;HTU21D;63505;45.226;37.908;2022-12-05T00:09:04;-1.73;78.33
74940;HTU21D;63505;45.226;37.908;2022-12-05T00:11:32;-1.73;78.37
74940;HTU21D;63505;45.226;37.908;2022-12-05T00:14:00;-1.73;78.37
74940;HTU21D;63505;45.226;37.908;2022-12-05T00:16:27;-1.73;78.41
74940;HTU21D;63505;45.226;37.908;2022-12-05T00:18:54;-1.74;78.42
74940;HTU21D;63505;45.226;37.908;2022-12-05T00:21:23;-1.74;78.46
74940;HTU21D;63505;45.226;37.908;2022-12-05T00:23:50;-1.74;78.49
74940;HTU21D;63505;45.226;37.908;2022-12-05T00:26:17;-1.73;78.53
74940;HTU21D;63505;45.226;37.908;2022-12-05T00:28:43;-1.74;78.56
74940;HTU21D;63505;45.226;37.908;2022-12-05T00:31:15;-1.74;78.58
74940;HTU21D;63505;45.226;37.908;2022-12-05T00:33:42;-1.74;78.59
74940;HTU21D;63505;45.226;37.908;2022-12-05T00:36:22;-1.72;78.60
74940;HTU21D;63505;45.226;37.908;2022-12-05T00:38:49;-1.73;78.63
74940;HTU21D;63505;45.226;37.908;2022-12-05T00:41:18;-1.72;78.63
74940;HTU21D;63505;45.226;37.908;2022-12-05T00:43:44;-1.72;78.64
74940;HTU21D;63505;45.226;37.908;2022-12-05T00:46:15;-1.72;78.65
74940;HTU21D;63505;45.226;37.908;2022-12-05T00:48:41;-1.72;78.69
74940;HTU21D;63505;45.226;37.908;2022-12-05T00:51:16;-1.71;78.72
74940;HTU21D;63505;45.226;37.908;2022-12-05T00:53:43;-1.70;78.74
74940;HTU21D;63505;45.226;37.908;2022-12-05T00:56:12;-1.70;78.77
74940;HTU21D;63505;45.226;37.908;2022-12-05T00:58:38;-1.71;78.79
74940;HTU21D;63505;45.226;37.908;2022-12-05T01:01:31;-1.73;78.84
74940;HTU21D;63505;45.226;37.908;2022-12-05T01:04:00;-1.72;78.88
74940;HTU21D;63505;45.226;37.908;2022-12-05T01:06:26;-1.74;78.88
74940;HTU21D;63505;45.226;37.908;2022-12-05T01:08:54;-1.75;78.92
74940;HTU21D;63505;45.226;37.908;2022-12-05T01:11:20;-1.73;78.94
74940;HTU21D;63505;45.226;37.908;2022-12-05T01:13:48;-1.75;78.96
74940;HTU21D;63505;45.226;37.908;2022-12-05T01:16:20;-1.76;78.98
74940;HTU21D;63505;45.226;37.908;2022-12-05T01:18:46;-1.77;79.01
74940;HTU21D;63505;45.226;37.908;2022-12-05T01:21:12;-1.79;79.05
74940;HTU21D;63505;45.226;37.908;2022-12-05T01:23:38;-1.79;79.11
74940;HTU21D;63505;45.226;37.908;2022-12-05T01:26:09;-1.80;79.13
74940;HTU21D;63505;45.226;37.908;2022-12-05T01:28:36;-1.80;79.16
74940;HTU21D;63505;45.226;37.908;2022-12-05T01:33:47;-1.83;79.20
74940;HTU21D;63505;45.226;37.908;2022-12-05T01:36:14;-1.84;79.21
74940;HTU21D;63505;45.226;37.908;2022-12-05T01:38:42;-1.84;79.20
74940;HTU21D;63505;45.226;37.908;2022-12-05T01:41:13;-1.83;79.21
74940;HTU21D;63505;45.226;37.908;2022-12-05T01:46:21;-1.82;79.23
74940;HTU21D;63505;45.226;37.908;2022-12-05T01:48:47;-1.84;79.23
74940;HTU21D;63505;45.226;37.908;2022-12-05T01:51:14;-1.82;79.24
74940;HTU21D;63505;45.226;37.908;2022-12-05T01:53:40;-1.82;79.24
74940;HTU21D;63505;45.226;37.908;2022-12-05T01:56:07;-1.82;79.26
74940;HTU21D;63505;45.226;37.908;2022-12-05T01:58:36;-1.84;79.30
74940;HTU21D;63505;45.226;37.908;2022-12-05T02:01:03;-1.85;79.30
74940;HTU21D;63505;45.226;37.908;2022-12-05T02:03:29;-1.85;79.31
74940;HTU21D;63505;45.226;37.908;2022-12-05T02:05:56;-1.86;79.30
74940;HTU21D;63505;45.226;37.908;2022-12-05T02:08:27;-1.87;79.29
74940;HTU21D;63505;45.226;37.908;2022-12-05T02:10:55;-1.86;79.31
74940;HTU21D;63505;45.226;37.908;2022-12-05T02:22:08;-1.84;79.33
74940;HTU21D;63505;45.226;37.908;2022-12-05T02:30:21;-1.82;79.30
74940;HTU21D;63505;45.226;37.908;2022-12-05T02:36:16;-1.79;79.36
74940;HTU21D;63505;45.226;37.908;2022-12-05T02:41:39;-1.83;79.35
74940;HTU21D;63505;45.226;37.908;2022-12-05T02:44:49;-1.83;79.38
74940;HTU21D;63505;45.226;37.908;2022-12-05T02:47:20;-1.82;79.41
74940;HTU21D;63505;45.226;37.908;2022-12-05T02:49:48;-1.82;79.43
74940;HTU21D;63505;45.226;37.908;2022-12-05T02:52:16;-1.80;79.43
74940;HTU21D;63505;45.226;37.908;2022-12-05T02:54:46;-1.79;79.44
74940;HTU21D;63505;45.226;37.908;2022-12-05T02:57:14;-1.83;79.46
74940;HTU21D;63505;45.226;37.908;2022-12-05T02:59:40;-1.80;79.48
74940;HTU21D;63505;45.226;37.908;2022-12-05T03:02:25;-1.80;79.49
74940;HTU21D;63505;45.226;37.908;2022-12-05T03:04:51;-1.78;79.51
74940;HTU21D;63505;45.226;37.908;2022-12-05T03:07:18;-1.77;79.56
74940;HTU21D;63505;45.226;37.908;2022-12-05T03:09:57;-1.75;79.58
74940;HTU21D;63505;45.226;37.908;2022-12-05T03:12:37;-1.76;79.61
74940;HTU21D;63505;45.226;37.908;2022-12-05T03:18:27;-1.73;79.62
74940;HTU21D;63505;45.226;37.908;2022-12-05T03:20:41;-1.75;79.63
74940;HTU21D;63505;45.226;37.908;2022-12-05T03:23:14;-1.73;79.62
74940;HTU21D;63505;45.226;37.908;2022-12-05T03:25:58;-1.71;79.61
74940;HTU21D;63505;45.226;37.908;2022-12-05T03:28:35;-1.71;79.59
74940;HTU21D;63505;45.226;37.908;2022-12-05T03:31:08;-1.71;79.59
74940;HTU21D;63505;45.226;37.908;2022-12-05T03:33:41;-1.71;79.60
74940;HTU21D;63505;45.226;37.908;2022-12-05T03:36:15;-1.71;79.63
74940;HTU21D;63505;45.226;37.908;2022-12-05T03:39:00;-1.73;79.66
74940;HTU21D;63505;45.226;37.908;2022-12-05T03:44:05;-1.78;79.72
74940;HTU21D;63505;45.226;37.908;2022-12-05T03:46:42;-1.79;79.72
74940;HTU21D;63505;45.226;37.908;2022-12-05T03:49:33;-1.79;79.75
74940;HTU21D;63505;45.226;37.908;2022-12-05T03:52:12;-1.79;79.74
74940;HTU21D;63505;45.226;37.908;2022-12-05T03:54:45;-1.80;79.77
74940;HTU21D;63505;45.226;37.908;2022-12-05T03:57:16;-1.80;79.76
74940;HTU21D;63505;45.226;37.908;2022-12-05T03:59:54;-1.82;79.81
74940;HTU21D;63505;45.226;37.908;2022-12-05T04:05:03;-1.80;79.85
74940;HTU21D;63505;45.226;37.908;2022-12-05T04:07:33;-1.80;79.87
74940;HTU21D;63505;45.226;37.908;2022-12-05T04:10:05;-1.79;79.88
74940;HTU21D;63505;45.226;37.908;2022-12-05T04:12:33;-1.79;79.88
74940;HTU21D;63505;45.226;37.908;2022-12-05T04:15:07;-1.78;79.91
74940;HTU21D;63505;45.226;37.908;2022-12-05T04:20:04;-1.76;79.96
74940;HTU21D;63505;45.226;37.908;2022-12-05T04:22:49;-1.75;80.01
74940;HTU21D;63505;45.226;37.908;2022-12-05T04:25:16;-1.74;80.01
74940;HTU21D;63505;45.226;37.908;2022-12-05T04:28:03;-1.73;80.01
74940;HTU21D;63505;45.226;37.908;2022-12-05T04:31:06;-1.72;80.05
74940;HTU21D;63505;45.226;37.908;2022-12-05T04:33:47;-1.71;80.07
74940;HTU21D;63505;45.226;37.908;2022-12-05T04:36:32;-1.72;80.07
74940;HTU21D;63505;45.226;37.908;2022-12-05T04:41:54;-1.73;80.11
74940;HTU21D;63505;45.226;37.908;2022-12-05T04:44:29;-1.73;80.13
74940;HTU21D;63505;45.226;37.908;2022-12-05T04:47:00;-1.71;80.12
74940;HTU21D;63505;45.226;37.908;2022-12-05T04:49:26;-1.70;80.11
74940;HTU21D;63505;45.226;37.908;2022-12-05T04:51:56;-1.70;80.12
74940;HTU21D;63505;45.226;37.908;2022-12-05T04:54:39;-1.70;80.13
74940;HTU21D;63505;45.226;37.908;2022-12-05T04:57:15;-1.69;80.14
74940;HTU21D;63505;45.226;37.908;2022-12-05T04:59:43;-1.70;80.12
74940;HTU21D;63505;45.226;37.908;2022-12-05T05:02:11;-1.68;80.14
74940;HTU21D;63505;45.226;37.908;2022-12-05T05:04:45;-1.64;80.12
74940;HTU21D;63505;45.226;37.908;2022-12-05T05:07:12;-1.67;80.10
74940;HTU21D;63505;45.226;37.908;2022-12-05T05:09:39;-1.67;80.12
74940;HTU21D;63505;45.226;37.908;2022-12-05T05:12:06;-1.64;80.14
74940;HTU21D;63505;45.226;37.908;2022-12-05T05:14:32;-1.64;80.17
74940;HTU21D;63505;45.226;37.908;2022-12-05T05:16:58;-1.63;80.19
74940;HTU21D;63505;45.226;37.908;2022-12-05T05:19:24;-1.65;80.20
74940;HTU21D;63505;45.226;37.908;2022-12-05T05:21:51;-1.65;80.20
74940;HTU21D;63505;45.226;37.908;2022-12-05T05:24:17;-1.64;80.20
74940;HTU21D;63505;45.226;37.908;2022-12-05T05:26:44;-1.65;80.17
74940;HTU21D;63505;45.226;37.908;2022-12-05T05:29:11;-1.65;80.14
74940;HTU21D;63505;45.226;37.908;2022-12-05T05:31:38;-1.65;80.15
74940;HTU21D;63505;45.226;37.908;2022-12-05T05:34:04;-1.63;80.14
74940;HTU21D;63505;45.226;37.908;2022-12-05T05:36:31;-1.60;80.14
74940;HTU21D;63505;45.226;37.908;2022-12-05T05:38:59;-1.57;80.13
74940;HTU21D;63505;45.226;37.908;2022-12-05T05:41:31;-1.56;80.09
74940;HTU21D;63505;45.226;37.908;2022-12-05T05:43:58;-1.55;80.08
74940;HTU21D;63505;45.226;37.908;2022-12-05T05:46:26;-1.53;80.07
74940;HTU21D;63505;45.226;37.908;2022-12-05T05:48:53;-1.49;80.06
74940;HTU21D;63505;45.226;37.908;2022-12-05T05:51:20;-1.47;80.05
74940;HTU21D;63505;45.226;37.908;2022-12-05T05:53:47;-1.44;80.04
74940;HTU21D;63505;45.226;37.908;2022-12-05T05:56:15;-1.39;80.04
74940;HTU21D;63505;45.226;37.908;2022-12-05T05:58:41;-1.40;79.98
74940;HTU21D;63505;45.226;37.908;2022-12-05T06:01:17;-1.38;79.92
74940;HTU21D;63505;45.226;37.908;2022-12-05T06:03:45;-1.35;79.88
74940;HTU21D;63505;45.226;37.908;2022-12-05T06:06:12;-1.31;79.83
74940;HTU21D;63505;45.226;37.908;2022-12-05T06:08:41;-1.31;79.83
74940;HTU21D;63505;45.226;37.908;2022-12-05T06:11:07;-1.28;79.80
74940;HTU21D;63505;45.226;37.908;2022-12-05T06:13:34;-1.24;79.79
74940;HTU21D;63505;45.226;37.908;2022-12-05T06:16:00;-1.23;79.72
74940;HTU21D;63505;45.226;37.908;2022-12-05T06:18:26;-1.23;79.65
74940;HTU21D;63505;45.226;37.908;2022-12-05T06:20:54;-1.21;79.58
74940;HTU21D;63505;45.226;37.908;2022-12-05T06:23:21;-1.21;79.49
74940;HTU21D;63505;45.226;37.908;2022-12-05T06:25:48;-1.18;79.49
74940;HTU21D;63505;45.226;37.908;2022-12-05T06:28:14;-1.16;79.46
74940;HTU21D;63505;45.226;37.908;2022-12-05T06:30:40;-1.14;79.44
74940;HTU21D;63505;45.226;37.908;2022-12-05T06:33:06;-1.10;79.45
74940;HTU21D;63505;45.226;37.908;2022-12-05T06:35:32;-1.04;79.44
74940;HTU21D;63505;45.226;37.908;2022-12-05T06:37:58;-1.02;79.33
74940;HTU21D;63505;45.226;37.908;2022-12-05T06:40:24;-1.02;79.27
74940;HTU21D;63505;45.226;37.908;2022-12-05T06:42:50;-1.00;79.23
74940;HTU21D;63505;45.226;37.908;2022-12-05T06:45:16;-0.94;79.24
74940;HTU21D;63505;45.226;37.908;2022-12-05T06:47:42;-0.90;79.16
74940;HTU21D;63505;45.226;37.908;2022-12-05T06:50:08;-0.86;79.11
74940;HTU21D;63505;45.226;37.908;2022-12-05T06:52:34;-0.84;79.04
74940;HTU21D;63505;45.226;37.908;2022-12-05T06:55:00;-0.79;79.00
74940;HTU21D;63505;45.226;37.908;2022-12-05T06:57:29;-0.74;78.93
74940;HTU21D;63505;45.226;37.908;2022-12-05T06:59:55;-0.68;78.88
74940;HTU21D;63505;45.226;37.908;2022-12-05T07:02:41;-0.61;78.84
74940;HTU21D;63505;45.226;37.908;2022-12-05T07:05:09;-0.58;78.72
74940;HTU21D;63505;45.226;37.908;2022-12-05T07:07:35;-0.53;78.69
74940;HTU21D;63505;45.226;37.908;2022-12-05T07:10:02;-0.49;78.65
74940;HTU21D;63505;45.226;37.908;2022-12-05T07:12:28;-0.41;78.64
74940;HTU21D;63505;45.226;37.908;2022-12-05T07:14:54;-0.32;78.62
74940;HTU21D;63505;45.226;37.908;2022-12-05T07:17:20;-0.25;78.53
74940;HTU21D;63505;45.226;37.908;2022-12-05T07:19:47;-0.22;78.35
74940;HTU21D;63505;45.226;37.908;2022-12-05T07:22:15;-0.19;78.21
74940;HTU21D;63505;45.226;37.908;2022-12-05T07:24:41;-0.20;77.92
74940;HTU21D;63505;45.226;37.908;2022-12-05T07:27:07;-0.16;77.82
74940;HTU21D;63505;45.226;37.908;2022-12-05T07:29:33;-0.14;77.76
74940;HTU21D;63505;45.226;37.908;2022-12-05T07:31:59;-0.11;77.72
74940;HTU21D;63505;45.226;37.908;2022-12-05T07:34:25;-0.05;77.76
74940;HTU21D;63505;45.226;37.908;2022-12-05T07:36:51;-0.02;77.68
74940;HTU21D;63505;45.226;37.908;2022-12-05T07:39:16;0.02;77.60
74940;HTU21D;63505;45.226;37.908;2022-12-05T07:41:42;0.06;77.56
74940;HTU21D;63505;45.226;37.908;2022-12-05T07:44:12;0.09;77.47
74940;HTU21D;63505;45.226;37.908;2022-12-05T07:46:39;0.15;77.38
74940;HTU21D;63505;45.226;37.908;2022-12-05T07:49:06;0.18;77.23
74940;HTU21D;63505;45.226;37.908;2022-12-05T07:51:32;0.15;77.07
74940;HTU21D;63505;45.226;37.908;2022-12-05T07:54:00;0.10;77.02
74940;HTU21D;63505;45.226;37.908;2022-12-05T07:56:26;0.09;76.95
74940;HTU21D;63505;45.226;37.908;2022-12-05T07:58:53;0.10;76.92
74940;HTU21D;63505;45.226;37.908;2022-12-05T08:01:21;0.10;76.90
74940;HTU21D;63505;45.226;37.908;2022-12-05T08:03:48;0.14;76.84
74940;HTU21D;63505;45.226;37.908;2022-12-05T08:06:20;0.16;76.73
74940;HTU21D;63505;45.226;37.908;2022-12-05T08:08:47;0.13;76.57
74940;HTU21D;63505;45.226;37.908;2022-12-05T08:11:17;0.16;76.60
74940;HTU21D;63505;45.226;37.908;2022-12-05T08:13:43;0.20;76.55
74940;HTU21D;63505;45.226;37.908;2022-12-05T08:16:14;0.22;76.46
74940;HTU21D;63505;45.226;37.908;2022-12-05T08:18:41;0.28;76.37
74940;HTU21D;63505;45.226;37.908;2022-12-05T08:21:09;0.35;76.29
74940;HTU21D;63505;45.226;37.908;2022-12-05T08:23:36;0.39;76.11
74940;HTU21D;63505;45.226;37.908;2022-12-05T08:28:40;0.47;76.01
74940;HTU21D;63505;45.226;37.908;2022-12-05T08:31:09;0.50;75.96
74940;HTU21D;63505;45.226;37.908;2022-12-05T08:33:35;0.53;75.95
74940;HTU21D;63505;45.226;37.908;2022-12-05T08:36:03;0.54;75.80
74940;HTU21D;63505;45.226;37.908;2022-12-05T08:38:30;0.52;75.72
74940;HTU21D;63505;45.226;37.908;2022-12-05T08:40:56;0.51;75.66
74940;HTU21D;63505;45.226;37.908;2022-12-05T08:43:24;0.54;75.71
74940;HTU21D;63505;45.226;37.908;2022-12-05T08:45:51;0.58;75.59
74940;HTU21D;63505;45.226;37.908;2022-12-05T08:48:17;0.60;75.58
74940;HTU21D;63505;45.226;37.908;2022-12-05T08:50:43;0.63;75.54
74940;HTU21D;63505;45.226;37.908;2022-12-05T08:53:10;0.62;75.38
74940;HTU21D;63505;45.226;37.908;2022-12-05T08:55:36;0.60;75.35
74940;HTU21D;63505;45.226;37.908;2022-12-05T08:58:03;0.59;75.35
74940;HTU21D;63505;45.226;37.908;2022-12-05T09:00:29;0.62;75.42
74940;HTU21D;63505;45.226;37.908;2022-12-05T09:02:55;0.63;75.31
74940;HTU21D;63505;45.226;37.908;2022-12-05T09:05:21;0.62;75.22
74940;HTU21D;63505;45.226;37.908;2022-12-05T09:07:47;0.61;75.18
74940;HTU21D;63505;45.226;37.908;2022-12-05T09:10:14;0.62;75.19
74940;HTU21D;63505;45.226;37.908;2022-12-05T09:12:40;0.63;75.17
74940;HTU21D;63505;45.226;37.908;2022-12-05T09:15:06;0.62;75.06
74940;HTU21D;63505;45.226;37.908;2022-12-05T09:17:33;0.66;75.14
74940;HTU21D;63505;45.226;37.908;2022-12-05T09:19:59;0.74;75.15
74940;HTU21D;63505;45.226;37.908;2022-12-05T09:22:25;0.77;75.17
74940;HTU21D;63505;45.226;37.908;2022-12-05T09:24:51;0.77;74.95
74940;HTU21D;63505;45.226;37.908;2022-12-05T09:27:17;0.78;74.80
74940;HTU21D;63505;45.226;37.908;2022-12-05T09:29:43;0.86;74.86
74940;HTU21D;63505;45.226;37.908;2022-12-05T09:32:10;0.88;74.80
74940;HTU21D;63505;45.226;37.908;2022-12-05T09:34:37;0.87;74.64
74940;HTU21D;63505;45.226;37.908;2022-12-05T09:37:05;0.88;74.58
74940;HTU21D;63505;45.226;37.908;2022-12-05T09:39:32;0.89;74.52
74940;HTU21D;63505;45.226;37.908;2022-12-05T09:42:42;0.93;74.60
74940;HTU21D;63505;45.226;37.908;2022-12-05T09:45:28;0.97;74.53
74940;HTU21D;63505;45.226;37.908;2022-12-05T09:48:11;0.96;74.31
74940;HTU21D;63505;45.226;37.908;2022-12-05T09:50:44;0.96;74.24
74940;HTU21D;63505;45.226;37.908;2022-12-05T09:53:35;0.97;74.13
74940;HTU21D;63505;45.226;37.908;2022-12-05T09:58:48;1.02;74.05
74940;HTU21D;63505;45.226;37.908;2022-12-05T10:09:45;1.07;73.94
74940;HTU21D;63505;45.226;37.908;2022-12-05T10:15:01;1.16;73.82
74940;HTU21D;63505;45.226;37.908;2022-12-05T10:17:37;1.12;73.44
74940;HTU21D;63505;45.226;37.908;2022-12-05T10:22:47;1.21;73.26
74940;HTU21D;63505;45.226;37.908;2022-12-05T10:25:20;1.23;73.31
74940;HTU21D;63505;45.226;37.908;2022-12-05T10:27:52;1.27;73.31
74940;HTU21D;63505;45.226;37.908;2022-12-05T10:30:22;1.34;73.35
74940;HTU21D;63505;45.226;37.908;2022-12-05T10:32:53;1.39;73.28
74940;HTU21D;63505;45.226;37.908;2022-12-05T10:37:52;1.49;73.25
74940;HTU21D;63505;45.226;37.908;2022-12-05T10:40:19;1.48;73.22
74940;HTU21D;63505;45.226;37.908;2022-12-05T10:42:46;1.49;73.13
74940;HTU21D;63505;45.226;37.908;2022-12-05T10:45:19;1.50;72.93
74940;HTU21D;63505;45.226;37.908;2022-12-05T10:47:46;1.57;73.03
74940;HTU21D;63505;45.226;37.908;2022-12-05T10:50:43;1.62;72.94
74940;HTU21D;63505;45.226;37.908;2022-12-05T10:53:44;1.58;72.43
74940;HTU21D;63505;45.226;37.908;2022-12-05T10:59:05;1.69;72.86
74940;HTU21D;63505;45.226;37.908;2022-12-05T11:01:32;1.75;72.61
74940;HTU21D;63505;45.226;37.908;2022-12-05T11:07:02;1.72;72.20
74940;HTU21D;63505;45.226;37.908;2022-12-05T11:09:34;1.69;72.32
74940;HTU21D;63505;45.226;37.908;2022-12-05T11:12:35;1.70;72.51
74940;HTU21D;63505;45.226;37.908;2022-12-05T11:17:52;1.76;72.23
74940;HTU21D;63505;45.226;37.908;2022-12-05T11:22:49;2.05;71.99
74940;HTU21D;63505;45.226;37.908;2022-12-05T11:25:33;2.17;71.94
74940;HTU21D;63505;45.226;37.908;2022-12-05T11:33:32;2.71;71.34
74940;HTU21D;63505;45.226;37.908;2022-12-05T11:36:11;2.62;70.93
74940;HTU21D;63505;45.226;37.908;2022-12-05T11:38:39;2.52;70.57
74940;HTU21D;63505;45.226;37.908;2022-12-05T11:49:30;2.73;70.35
74940;HTU21D;63505;45.226;37.908;2022-12-05T11:55:02;2.59;70.23
74940;HTU21D;63505;45.226;37.908;2022-12-05T12:00:39;2.34;70.32
74940;HTU21D;63505;45.226;37.908;2022-12-05T12:05:48;2.34;70.64
74940;HTU21D;63505;45.226;37.908;2022-12-05T12:08:22;2.53;70.98
74940;HTU21D;63505;45.226;37.908;2022-12-05T12:17:18;2.54;70.95
74940;HTU21D;63505;45.226;37.908;2022-12-05T12:20:03;2.76;71.24
74940;HTU21D;63505;45.226;37.908;2022-12-05T12:23:16;3.00;71.53
74940;HTU21D;63505;45.226;37.908;2022-12-05T12:31:55;3.45;70.00
74940;HTU21D;63505;45.226;37.908;2022-12-05T12:34:53;3.49;69.67
74940;HTU21D;63505;45.226;37.908;2022-12-05T12:37:47;3.55;69.33
74940;HTU21D;63505;45.226;37.908;2022-12-05T12:43:04;3.64;68.72
74940;HTU21D;63505;45.226;37.908;2022-12-05T12:50:36;3.61;67.57
74940;HTU21D;63505;45.226;37.908;2022-12-05T12:53:10;3.60;67.67
74940;HTU21D;63505;45.226;37.908;2022-12-05T13:03:23;3.42;68.36
74940;HTU21D;63505;45.226;37.908;2022-12-05T13:06:05;3.33;68.60
74940;HTU21D;63505;45.226;37.908;2022-12-05T13:11:32;2.97;68.39
74940;HTU21D;63505;45.226;37.908;2022-12-05T13:14:00;2.76;68.42
74940;HTU21D;63505;45.226;37.908;2022-12-05T13:16:35;2.58;68.55
74940;HTU21D;63505;45.226;37.908;2022-12-05T13:19:05;2.44;68.66
74940;HTU21D;63505;45.226;37.908;2022-12-05T13:21:32;2.31;68.84
74940;HTU21D;63505;45.226;37.908;2022-12-05T13:23:58;2.22;69.03
74940;HTU21D;63505;45.226;37.908;2022-12-05T13:26:31;2.12;69.20
74940;HTU21D;63505;45.226;37.908;2022-12-05T13:29:01;2.07;69.28
74940;HTU21D;63505;45.226;37.908;2022-12-05T13:31:37;2.00;69.42
74940;HTU21D;63505;45.226;37.908;2022-12-05T13:34:05;1.93;69.54
74940;HTU21D;63505;45.226;37.908;2022-12-05T13:36:39;1.82;69.58
74940;HTU21D;63505;45.226;37.908;2022-12-05T13:39:24;1.70;69.80
74940;HTU21D;63505;45.226;37.908;2022-12-05T13:42:23;1.56;70.04
74940;HTU21D;63505;45.226;37.908;2022-12-05T13:45:38;1.48;70.26
74940;HTU21D;63505;45.226;37.908;2022-12-05T13:58:51;1.07;71.24
74940;HTU21D;63505;45.226;37.908;2022-12-05T14:17:27;0.78;72.22
74940;HTU21D;63505;45.226;37.908;2022-12-05T14:31:59;0.57;72.83
74940;HTU21D;63505;45.226;37.908;2022-12-05T14:34:27;0.51;72.94
74940;HTU21D;63505;45.226;37.908;2022-12-05T14:37:05;0.46;73.09
74940;HTU21D;63505;45.226;37.908;2022-12-05T14:42:04;0.43;73.32
74940;HTU21D;63505;45.226;37.908;2022-12-05T14:44:32;0.44;73.44
74940;HTU21D;63505;45.226;37.908;2022-12-05T14:47:00;0.44;73.51
74940;HTU21D;63505;45.226;37.908;2022-12-05T14:49:57;0.46;73.52
74940;HTU21D;63505;45.226;37.908;2022-12-05T14:52:28;0.47;73.57
74940;HTU21D;63505;45.226;37.908;2022-12-05T14:55:05;0.46;73.65
74940;HTU21D;63505;45.226;37.908;2022-12-05T14:57:44;0.48;73.69
74940;HTU21D;63505;45.226;37.908;2022-12-05T15:00:20;0.48;73.70
74940;HTU21D;63505;45.226;37.908;2022-12-05T15:02:48;0.46;73.69
74940;HTU21D;63505;45.226;37.908;2022-12-05T15:05:30;0.42;73.72
74940;HTU21D;63505;45.226;37.908;2022-12-05T15:07:58;0.34;73.82
74940;HTU21D;63505;45.226;37.908;2022-12-05T15:10:37;0.27;73.94
74940;HTU21D;63505;45.226;37.908;2022-12-05T15:13:21;0.18;74.12
74940;HTU21D;63505;45.226;37.908;2022-12-05T15:15:58;0.14;74.28
74940;HTU21D;63505;45.226;37.908;2022-12-05T15:18:34;0.07;74.41
74940;HTU21D;63505;45.226;37.908;2022-12-05T15:21:20;0.01;74.54
74940;HTU21D;63505;45.226;37.908;2022-12-05T15:23:52;-0.03;74.70
74940;HTU21D;63505;45.226;37.908;2022-12-05T15:26:38;-0.07;74.80
74940;HTU21D;63505;45.226;37.908;2022-12-05T15:31:44;-0.12;74.93
74940;HTU21D;63505;45.226;37.908;2022-12-05T15:39:53;-0.22;75.09
74940;HTU21D;63505;45.226;37.908;2022-12-05T15:42:27;-0.27;75.16
74940;HTU21D;63505;45.226;37.908;2022-12-05T15:50:39;-0.40;75.41
74940;HTU21D;63505;45.226;37.908;2022-12-05T15:56:03;-0.50;75.60
74940;HTU21D;63505;45.226;37.908;2022-12-05T15:58:41;-0.52;75.65
74940;HTU21D;63505;45.226;37.908;2022-12-05T16:01:19;-0.56;75.70
74940;HTU21D;63505;45.226;37.908;2022-12-05T16:09:29;-0.66;75.91
74940;HTU21D;63505;45.226;37.908;2022-12-05T16:11:59;-0.68;75.93
74940;HTU21D;63505;45.226;37.908;2022-12-05T16:14:35;-0.72;75.98
74940;HTU21D;63505;45.226;37.908;2022-12-05T16:17:03;-0.76;76.02
74940;HTU21D;63505;45.226;37.908;2022-12-05T16:19:30;-0.80;76.09
74940;HTU21D;63505;45.226;37.908;2022-12-05T16:22:08;-0.84;76.15
74940;HTU21D;63505;45.226;37.908;2022-12-05T16:27:14;-0.94;76.31
74940;HTU21D;63505;45.226;37.908;2022-12-05T16:29:42;-0.97;76.41
74940;HTU21D;63505;45.226;37.908;2022-12-05T16:32:20;-0.99;76.48
74940;HTU21D;63505;45.226;37.908;2022-12-05T16:34:47;-1.03;76.54
74940;HTU21D;63505;45.226;37.908;2022-12-05T16:37:24;-1.06;76.60
74940;HTU21D;63505;45.226;37.908;2022-12-05T16:39:51;-1.08;76.66
74940;HTU21D;63505;45.226;37.908;2022-12-05T16:42:25;-1.10;76.70
74940;HTU21D;63505;45.226;37.908;2022-12-05T16:44:59;-1.12;76.73
74940;HTU21D;63505;45.226;37.908;2022-12-05T16:50:25;-1.18;76.86
74940;HTU21D;63505;45.226;37.908;2022-12-05T16:53:02;-1.20;76.93
74940;HTU21D;63505;45.226;37.908;2022-12-05T16:55:28;-1.25;76.97
74940;HTU21D;63505;45.226;37.908;2022-12-05T16:57:56;-1.25;77.01
74940;HTU21D;63505;45.226;37.908;2022-12-05T17:00:22;-1.28;77.06
74940;HTU21D;63505;45.226;37.908;2022-12-05T17:02:48;-1.28;77.09
74940;HTU21D;63505;45.226;37.908;2022-12-05T17:05:14;-1.31;77.12
74940;HTU21D;63505;45.226;37.908;2022-12-05T17:07:41;-1.32;77.18
74940;HTU21D;63505;45.226;37.908;2022-12-05T17:10:07;-1.32;77.23
74940;HTU21D;63505;45.226;37.908;2022-12-05T17:12:33;-1.34;77.27
74940;HTU21D;63505;45.226;37.908;2022-12-05T17:14:59;-1.34;77.31
74940;HTU21D;63505;45.226;37.908;2022-12-05T17:17:26;-1.39;77.32
74940;HTU21D;63505;45.226;37.908;2022-12-05T17:19:52;-1.39;77.37
74940;HTU21D;63505;45.226;37.908;2022-12-05T17:22:18;-1.43;77.43
74940;HTU21D;63505;45.226;37.908;2022-12-05T17:24:44;-1.45;77.48
74940;HTU21D;63505;45.226;37.908;2022-12-05T17:27:11;-1.47;77.54
74940;HTU21D;63505;45.226;37.908;2022-12-05T17:29:37;-1.50;77.58
74940;HTU21D;63505;45.226;37.908;2022-12-05T17:32:03;-1.52;77.63
74940;HTU21D;63505;45.226;37.908;2022-12-05T17:34:30;-1.53;77.65
74940;HTU21D;63505;45.226;37.908;2022-12-05T17:36:56;-1.56;77.72
74940;HTU21D;63505;45.226;37.908;2022-12-05T17:39:22;-1.59;77.76
74940;HTU21D;63505;45.226;37.908;2022-12-05T17:41:48;-1.60;77.78
74940;HTU21D;63505;45.226;37.908;2022-12-05T17:44:15;-1.63;77.82
74940;HTU21D;63505;45.226;37.908;2022-12-05T17:46:41;-1.65;77.85
74940;HTU21D;63505;45.226;37.908;2022-12-05T17:49:11;-1.69;77.91
74940;HTU21D;63505;45.226;37.908;2022-12-05T17:51:39;-1.70;77.95
74940;HTU21D;63505;45.226;37.908;2022-12-05T17:54:05;-1.72;77.97
74940;HTU21D;63505;45.226;37.908;2022-12-05T17:56:31;-1.74;78.01
74940;HTU21D;63505;45.226;37.908;2022-12-05T17:58:57;-1.76;78.05
74940;HTU21D;63505;45.226;37.908;2022-12-05T18:01:23;-1.78;78.12
74940;HTU21D;63505;45.226;37.908;2022-12-05T18:03:50;-1.82;78.18
74940;HTU21D;63505;45.226;37.908;2022-12-05T18:06:16;-1.83;78.21
74940;HTU21D;63505;45.226;37.908;2022-12-05T18:08:43;-1.85;78.23
74940;HTU21D;63505;45.226;37.908;2022-12-05T18:11:12;-1.86;78.24
74940;HTU21D;63505;45.226;37.908;2022-12-05T18:13:38;-1.89;78.27
74940;HTU21D;63505;45.226;37.908;2022-12-05T18:16:05;-1.93;78.32
74940;HTU21D;63505;45.226;37.908;2022-12-05T18:18:31;-1.94;78.37
74940;HTU21D;63505;45.226;37.908;2022-12-05T18:21:10;-1.97;78.41
74940;HTU21D;63505;45.226;37.908;2022-12-05T18:23:38;-1.99;78.43
74940;HTU21D;63505;45.226;37.908;2022-12-05T18:26:06;-2.02;78.44
74940;HTU21D;63505;45.226;37.908;2022-12-05T18:28:34;-2.04;78.47
74940;HTU21D;63505;45.226;37.908;2022-12-05T18:31:04;-2.06;78.53
74940;HTU21D;63505;45.226;37.908;2022-12-05T18:33:31;-2.08;78.55
74940;HTU21D;63505;45.226;37.908;2022-12-05T18:35:56;-2.09;78.58
74940;HTU21D;63505;45.226;37.908;2022-12-05T18:38:22;-2.12;78.58
74940;HTU21D;63505;45.226;37.908;2022-12-05T18:40:48;-2.14;78.62
74940;HTU21D;63505;45.226;37.908;2022-12-05T18:43:14;-2.16;78.63
74940;HTU21D;63505;45.226;37.908;2022-12-05T18:45:40;-2.19;78.66